KCNK/CNK METAR and TAF weather

Enter ICAO airport designator
Station Type Date Time Source
KCNK METAR 2020/08/11 17:55 UTC NOAA

KCNK 111755Z AUTO 11004KT 10SM CLR 30/23 A2998 RMK AO2 SLP136 T03000233 10300 20217 58007


Station Type Date Time Source
KCNK Decoded METAR 2020/08/11 17:55 UTC NOAA

Concordia, Blosser Municipal Airport, KS, United States (KCNK) 39-33-05N 097-39-02W 447M
Aug 11, 2020 - 01:55 PM EDT / 2020.08.11 1755 UTC
Wind: from the ESE (110 degrees) at 5 MPH (4 KT):0
Visibility: 10 mile(s):0
Sky conditions: clear
Temperature: 86.0 F (30.0 C)
Heat index: 93.7 F (34.3 C):1
Dew Point: 73.9 F (23.3 C)
Relative Humidity: 67%
Pressure (altimeter): 29.98 in. Hg (1015 hPa)
Pressure tendency: 0.02 inches (0.7 hPa) lower than three hours ago
ob: KCNK 111755Z AUTO 11004KT 10SM CLR 30/23 A2998 RMK AO2 SLP136 T03000233 10300 20217 58007
cycle: 18

Station Type Date Time Source
KCNK TAF UTC NOAA

Error!

Example: see airport list